createdAt,value
2022-08-28T00:00:47.089Z,100056.06
2022-08-28T00:03:15.592Z,100057.25
2022-08-28T00:05:45.282Z,100054.72
2022-08-28T00:08:13.087Z,100059.47
2022-08-28T00:10:41.276Z,100060.84
2022-08-28T00:13:09.055Z,100053.06
2022-08-28T00:15:36.711Z,100070.66
2022-08-28T00:18:05.002Z,100063.91
2022-08-28T00:20:34.077Z,100067.75
2022-08-28T00:23:01.820Z,100062.56
2022-08-28T00:25:29.506Z,100073.69
2022-08-28T00:27:57.484Z,100073.03
2022-08-28T00:30:27.450Z,100067.13
2022-08-28T00:32:55.259Z,100063.56
2022-08-28T00:35:23.538Z,100065.44
2022-08-28T00:37:51.964Z,100061.06
2022-08-28T00:40:30.424Z,100070.00
2022-08-28T00:43:01.105Z,100058.69
2022-08-28T00:45:28.804Z,100066.13
2022-08-28T00:47:56.846Z,100061.25
2022-08-28T00:50:24.661Z,100068.69
2022-08-28T00:52:51.334Z,100072.22
2022-08-28T00:55:19.070Z,100070.38
2022-08-28T00:57:48.730Z,100070.38
2022-08-28T01:00:16.651Z,100069.69
2022-08-28T01:02:44.555Z,100070.69
2022-08-28T01:05:12.294Z,100074.41
2022-08-28T01:07:39.962Z,100075.63
2022-08-28T01:10:08.438Z,100073.25
2022-08-28T01:12:36.031Z,100077.63
2022-08-28T01:15:03.681Z,100068.69
2022-08-28T01:17:31.381Z,100069.72
2022-08-28T01:19:59.103Z,100070.91
2022-08-28T01:22:26.941Z,100073.91
2022-08-28T01:24:55.072Z,100081.50
2022-08-28T01:27:25.106Z,100076.81
2022-08-28T01:29:52.867Z,100085.41
2022-08-28T01:32:20.674Z,100084.72
2022-08-28T01:34:48.352Z,100086.25
2022-08-28T01:37:16.019Z,100085.91
2022-08-28T01:39:44.063Z,100084.06
2022-08-28T01:42:11.788Z,100090.66
2022-08-28T01:44:39.418Z,100093.00
2022-08-28T01:47:07.129Z,100092.81
2022-08-28T01:49:35.223Z,100089.94
2022-08-28T01:52:03.432Z,100089.94
2022-08-28T01:54:31.365Z,100095.28
2022-08-28T01:56:59.030Z,100100.66
2022-08-28T01:59:27.121Z,100100.47
2022-08-28T02:01:55.497Z,100107.03
2022-08-28T02:04:31.777Z,100110.06
2022-08-28T02:07:00.060Z,100106.72
2022-08-28T02:09:28.168Z,100106.88
2022-08-28T02:11:57.568Z,100107.69
2022-08-28T02:14:25.292Z,100104.00
2022-08-28T02:16:53.155Z,100109.22
2022-08-28T02:19:21.508Z,100108.38
2022-08-28T02:21:49.180Z,100111.41
2022-08-28T02:24:17.793Z,100110.88
2022-08-28T02:26:45.787Z,100109.34
2022-08-28T02:29:13.993Z,100108.69
2022-08-28T02:31:41.639Z,100105.31
2022-08-28T02:34:09.687Z,100119.28
2022-08-28T02:36:37.309Z,100116.38
2022-08-28T02:39:05.472Z,100113.50
2022-08-28T02:41:33.102Z,100118.19
2022-08-28T02:44:00.879Z,100116.00
2022-08-28T02:46:28.598Z,100122.41
2022-08-28T02:48:56.724Z,100118.84
2022-08-28T02:51:24.438Z,100125.75
2022-08-28T02:53:52.448Z,100127.59
2022-08-28T02:56:20.173Z,100125.09
2022-08-28T02:58:48.265Z,100131.44
2022-08-28T03:01:15.981Z,100129.75
2022-08-28T03:03:43.678Z,100139.72
2022-08-28T03:06:12.382Z,100136.50
2022-08-28T03:08:40.408Z,100138.31
2022-08-28T03:11:08.221Z,100135.81
2022-08-28T03:13:35.816Z,100142.19
2022-08-28T03:16:04.940Z,100142.19
2022-08-28T03:18:33.310Z,100142.38
2022-08-28T03:21:00.979Z,100134.44
2022-08-28T03:23:28.793Z,100137.25
2022-08-28T03:25:56.457Z,100135.72
2022-08-28T03:28:24.569Z,100134.38
2022-08-28T03:30:52.377Z,100133.69
2022-08-28T03:33:20.197Z,100126.78
2022-08-28T03:35:47.783Z,100134.31
2022-08-28T03:38:17.070Z,100135.47
2022-08-28T03:40:45.085Z,100138.50
2022-08-28T03:43:13.615Z,100140.66
2022-08-28T03:45:41.255Z,100141.34
2022-08-28T03:48:09.039Z,100138.13
2022-08-28T03:50:37.452Z,100136.44
2022-08-28T03:53:05.142Z,100137.59
2022-08-28T03:55:32.837Z,100142.28
2022-08-28T03:58:01.271Z,100140.59
2022-08-28T04:00:29.537Z,100142.25
2022-08-28T04:02:58.144Z,100142.88
2022-08-28T04:05:25.864Z,100144.34
2022-08-28T04:07:53.610Z,100148.34
2022-08-28T04:10:21.808Z,100147.25
2022-08-28T04:12:49.503Z,100148.75
2022-08-28T04:15:17.212Z,100143.81
2022-08-28T04:17:44.905Z,100153.06
2022-08-28T04:20:12.554Z,100160.59
2022-08-28T04:22:40.292Z,100159.34
2022-08-28T04:25:08.318Z,100159.97
2022-08-28T04:27:36.039Z,100157.88
2022-08-28T04:30:03.705Z,100168.25
2022-08-28T04:32:31.385Z,100161.63
2022-08-28T04:34:59.115Z,100157.03
2022-08-28T04:37:27.977Z,100163.84
2022-08-28T04:39:56.275Z,100168.97
2022-08-28T04:42:24.053Z,100166.75
2022-08-28T04:44:51.659Z,100163.50
2022-08-28T04:47:19.310Z,100166.50
2022-08-28T04:49:47.393Z,100163.13
2022-08-28T04:52:15.128Z,100161.41
2022-08-28T04:54:42.935Z,100156.22
2022-08-28T04:57:10.637Z,100169.66
2022-08-28T04:59:39.240Z,100165.81
2022-08-28T05:02:07.056Z,100170.03
2022-08-28T05:04:34.834Z,100166.06
2022-08-28T05:07:02.569Z,100163.06
2022-08-28T05:09:32.212Z,100170.66
2022-08-28T05:11:59.964Z,100165.69
2022-08-28T05:14:27.616Z,100176.50
2022-08-28T05:16:57.750Z,100177.59
2022-08-28T05:19:26.094Z,100173.34
2022-08-28T05:21:53.775Z,100182.00
2022-08-28T05:24:21.485Z,100182.22
2022-08-28T05:26:49.275Z,100179.94
2022-08-28T05:29:18.004Z,100181.34
2022-08-28T05:31:45.724Z,100177.31
2022-08-28T05:34:14.079Z,100185.78
2022-08-28T05:36:41.884Z,100187.69
2022-08-28T05:39:09.887Z,100187.91
2022-08-28T05:41:37.579Z,100191.50
2022-08-28T05:44:05.272Z,100189.34
2022-08-28T05:46:32.969Z,100190.06
2022-08-28T05:49:01.069Z,100193.25
2022-08-28T05:51:28.684Z,100199.69
2022-08-28T05:53:56.360Z,100198.72
2022-08-28T05:56:23.973Z,100197.53
2022-08-28T05:58:52.116Z,100198.91
2022-08-28T06:01:19.738Z,100209.53
2022-08-28T06:03:47.670Z,100201.00
2022-08-28T06:06:15.313Z,100206.72
2022-08-28T06:08:56.201Z,100204.56
2022-08-28T06:11:27.014Z,100208.81
2022-08-28T06:13:58.173Z,100211.88
2022-08-28T06:16:26.166Z,100210.56
2022-08-28T06:18:53.919Z,100211.59
2022-08-28T06:21:21.926Z,100221.22
2022-08-28T06:23:49.534Z,100225.78
2022-08-28T06:26:17.652Z,100214.16
2022-08-28T06:28:45.318Z,100219.38
2022-08-28T06:31:24.358Z,100230.34
2022-08-28T06:33:54.140Z,100225.16
2022-08-28T06:36:21.995Z,100225.16
2022-08-28T06:38:51.258Z,100231.25
2022-08-28T06:41:19.841Z,100225.19
2022-08-28T06:43:47.505Z,100222.56
2022-08-28T06:46:15.348Z,100223.44
2022-08-28T06:48:43.057Z,100232.22
2022-08-28T06:51:10.795Z,100229.75
2022-08-28T06:53:38.481Z,100231.47
2022-08-28T06:56:08.441Z,100227.97
2022-08-28T06:58:36.138Z,100228.16
2022-08-28T07:01:03.861Z,100225.50
2022-08-28T07:03:31.945Z,100227.19
2022-08-28T07:05:59.687Z,100232.59
2022-08-28T07:08:27.344Z,100236.31
2022-08-28T07:10:55.417Z,100225.22
2022-08-28T07:13:23.332Z,100231.81
2022-08-28T07:15:51.061Z,100232.97
2022-08-28T07:18:18.794Z,100239.41
2022-08-28T07:20:46.517Z,100233.16
2022-08-28T07:23:14.193Z,100235.38
2022-08-28T07:25:42.783Z,100238.59
2022-08-28T07:28:10.471Z,100245.47
2022-08-28T07:30:38.152Z,100237.06
2022-08-28T07:33:05.767Z,100241.44
2022-08-28T07:35:33.500Z,100252.25
2022-08-28T07:38:01.135Z,100241.44
2022-08-28T07:40:29.329Z,100242.09
2022-08-28T07:43:14.664Z,100250.03
2022-08-28T07:45:42.609Z,100246.50
2022-08-28T07:48:11.640Z,100256.13
2022-08-28T07:50:39.543Z,100259.19
2022-08-28T07:53:09.164Z,100253.63
2022-08-28T07:55:36.863Z,100257.81
2022-08-28T07:58:05.980Z,100250.47
2022-08-28T08:00:33.703Z,100250.09
2022-08-28T08:03:01.379Z,100246.63
2022-08-28T08:05:29.152Z,100250.94
2022-08-28T08:07:56.786Z,100257.97
2022-08-28T08:10:24.519Z,100261.16
2022-08-28T08:12:52.540Z,100256.94
2022-08-28T08:15:21.324Z,100252.41
2022-08-28T08:17:49.395Z,100261.31
2022-08-28T08:20:17.971Z,100264.56
2022-08-28T08:22:45.691Z,100262.44
2022-08-28T08:25:13.433Z,100265.41
2022-08-28T08:27:43.067Z,100272.81
2022-08-28T08:30:11.527Z,100271.78
2022-08-28T08:32:40.170Z,100271.22
2022-08-28T08:35:08.013Z,100265.97
2022-08-28T08:37:35.753Z,100274.91
2022-08-28T08:40:06.474Z,100278.47
2022-08-28T08:42:38.444Z,100269.81
2022-08-28T08:45:07.473Z,100269.97
2022-08-28T08:47:35.149Z,100264.44
2022-08-28T08:50:02.946Z,100257.13
2022-08-28T08:52:30.649Z,100257.44
2022-08-28T08:54:59.475Z,100263.03
2022-08-28T08:57:27.181Z,100258.47
2022-08-28T08:59:54.858Z,100263.47
2022-08-28T09:02:22.624Z,100263.34
2022-08-28T09:04:59.003Z,100269.25
2022-08-28T09:07:26.718Z,100272.22
2022-08-28T09:09:54.879Z,100263.53
2022-08-28T09:12:23.247Z,100268.66
2022-08-28T09:14:50.870Z,100276.00
2022-08-28T09:17:18.576Z,100271.19
2022-08-28T09:19:46.755Z,100276.53
2022-08-28T09:22:14.762Z,100278.38
2022-08-28T09:24:42.501Z,100273.91
2022-08-28T09:27:14.296Z,100277.56
2022-08-28T09:29:43.505Z,100278.03
2022-08-28T09:32:11.516Z,100276.81
2022-08-28T09:34:39.367Z,100273.81
2022-08-28T09:37:08.387Z,100280.50
2022-08-28T09:39:37.184Z,100286.41
2022-08-28T09:42:22.483Z,100271.91
2022-08-28T09:44:51.851Z,100279.13
2022-08-28T09:47:20.170Z,100270.31
2022-08-28T09:49:48.157Z,100274.22
2022-08-28T09:52:15.943Z,100283.56
2022-08-28T09:54:44.832Z,100278.25
2022-08-28T09:57:12.834Z,100283.22
2022-08-28T09:59:40.729Z,100272.63
2022-08-28T10:02:10.686Z,100277.97
2022-08-28T10:04:38.734Z,100281.88
2022-08-28T10:07:06.526Z,100280.78
2022-08-28T10:09:34.643Z,100282.34
2022-08-28T10:12:02.319Z,100283.31
2022-08-28T10:14:30.078Z,100275.34
2022-08-28T10:16:57.819Z,100276.41
2022-08-28T10:19:25.920Z,100269.72
2022-08-28T10:21:53.587Z,100263.28
2022-08-28T10:24:24.262Z,100265.88
2022-08-28T10:26:55.431Z,100264.75
2022-08-28T10:29:23.881Z,100270.75
2022-08-28T10:31:51.583Z,100263.50
2022-08-28T10:34:19.248Z,100260.16
2022-08-28T10:36:46.912Z,100251.72
2022-08-28T10:39:14.947Z,100260.50
2022-08-28T10:41:42.562Z,100252.66
2022-08-28T10:44:10.257Z,100251.63
2022-08-28T10:46:37.995Z,100255.19
2022-08-28T10:49:07.080Z,100260.97
2022-08-28T10:51:36.318Z,100263.34
2022-08-28T10:54:06.130Z,100267.66
2022-08-28T10:56:33.877Z,100260.44
2022-08-28T10:59:02.053Z,100267.16
2022-08-28T11:01:29.843Z,100256.66
2022-08-28T11:03:57.639Z,100252.75
2022-08-28T11:06:25.799Z,100250.38
2022-08-28T11:08:53.849Z,100255.34
2022-08-28T11:11:21.501Z,100244.25
2022-08-28T11:13:49.195Z,100247.47
2022-08-28T11:16:17.302Z,100251.75
2022-08-28T11:18:45.505Z,100247.50
2022-08-28T11:21:13.220Z,100250.25
2022-08-28T11:23:40.949Z,100249.81
2022-08-28T11:26:09.136Z,100251.63
2022-08-28T11:28:36.854Z,100244.19
2022-08-28T11:31:04.676Z,100243.94
2022-08-28T11:33:32.632Z,100240.63
2022-08-28T11:36:00.332Z,100250.38
2022-08-28T11:38:27.951Z,100248.91
2022-08-28T11:40:56.128Z,100245.94
2022-08-28T11:43:23.926Z,100243.63
2022-08-28T11:45:51.651Z,100244.88
2022-08-28T11:48:19.456Z,100250.53
2022-08-28T11:50:48.646Z,100253.94
2022-08-28T11:53:16.413Z,100253.16
2022-08-28T11:55:44.056Z,100247.34
2022-08-28T12:00:38.914Z,100247.34
2022-08-28T12:03:06.674Z,100245.13
2022-08-28T12:05:34.389Z,100252.63
2022-08-28T12:08:02.544Z,100243.47
2022-08-28T12:10:31.693Z,100239.56
2022-08-28T12:12:59.434Z,100230.41
2022-08-28T12:15:27.315Z,100229.63
2022-08-28T12:17:54.985Z,100236.16
2022-08-28T12:20:23.004Z,100237.81
2022-08-28T12:22:53.180Z,100241.78
2022-08-28T12:25:20.893Z,100236.25
2022-08-28T12:27:48.641Z,100234.06
2022-08-28T12:30:16.767Z,100235.13
2022-08-28T12:32:44.469Z,100236.53
2022-08-28T12:35:12.222Z,100233.50
2022-08-28T12:37:52.347Z,100230.72
2022-08-28T12:40:21.348Z,100226.81
2022-08-28T12:42:53.147Z,100227.66
2022-08-28T12:45:23.154Z,100238.94
2022-08-28T12:47:51.030Z,100226.25
2022-08-28T12:50:18.722Z,100230.06
2022-08-28T12:52:46.541Z,100230.44
2022-08-28T12:55:14.696Z,100227.13
2022-08-28T12:57:42.467Z,100237.09
2022-08-28T13:00:10.345Z,100240.09
2022-08-28T13:02:38.124Z,100239.44
2022-08-28T13:05:05.884Z,100234.78
2022-08-28T13:07:34.190Z,100239.28
2022-08-28T13:10:03.624Z,100236.69
2022-08-28T13:12:54.460Z,100232.72
2022-08-28T13:15:24.138Z,100222.44
2022-08-28T13:17:52.387Z,100224.56
2022-08-28T13:20:20.115Z,100217.25
2022-08-28T13:22:50.891Z,100223.09
2022-08-28T13:25:19.206Z,100228.25
2022-08-28T13:27:46.903Z,100218.56
2022-08-28T13:30:14.624Z,100224.44
2022-08-28T13:32:42.312Z,100222.94
2022-08-28T13:35:10.092Z,100212.56
2022-08-28T13:37:37.764Z,100212.25
2022-08-28T13:40:13.000Z,100208.16
2022-08-28T13:42:47.556Z,100217.34
2022-08-28T13:45:15.246Z,100208.69
2022-08-28T13:47:43.786Z,100212.72
2022-08-28T13:50:11.637Z,100213.41
2022-08-28T13:52:39.301Z,100209.44
2022-08-28T13:55:08.483Z,100204.59
2022-08-28T13:57:38.440Z,100202.28
2022-08-28T14:00:06.088Z,100198.25
2022-08-28T14:02:51.489Z,100198.09
2022-08-28T14:05:19.720Z,100192.69
2022-08-28T14:07:49.062Z,100196.44
2022-08-28T14:10:16.716Z,100194.28
2022-08-28T14:12:46.931Z,100187.88
2022-08-28T14:15:14.665Z,100188.09
2022-08-28T14:17:42.667Z,100180.56
2022-08-28T14:20:10.313Z,100175.44
2022-08-28T14:22:38.490Z,100185.50
2022-08-28T14:25:06.278Z,100184.13
2022-08-28T14:27:34.381Z,100184.31
2022-08-28T14:30:02.123Z,100188.25
2022-08-28T14:32:29.839Z,100188.19
2022-08-28T14:34:57.678Z,100179.41
2022-08-28T14:37:25.814Z,100176.09
2022-08-28T14:39:53.504Z,100182.91
2022-08-28T14:42:21.312Z,100188.09
2022-08-28T14:44:49.081Z,100179.53
2022-08-28T14:47:17.299Z,100184.53
2022-08-28T14:49:45.122Z,100177.94
2022-08-28T14:52:12.844Z,100182.38
2022-08-28T14:54:40.731Z,100182.53
2022-08-28T14:57:08.411Z,100178.09
2022-08-28T14:59:36.389Z,100179.47
2022-08-28T15:02:04.215Z,100176.69
2022-08-28T15:04:34.867Z,100180.16
2022-08-28T15:07:03.052Z,100183.44
2022-08-28T15:09:30.748Z,100178.06
2022-08-28T15:11:58.472Z,100173.41
2022-08-28T15:14:26.152Z,100184.16
2022-08-28T15:16:54.648Z,100182.06
2022-08-28T15:19:23.537Z,100181.56
2022-08-28T15:21:51.304Z,100174.81
2022-08-28T15:24:19.040Z,100181.09
2022-08-28T15:26:47.161Z,100177.19
2022-08-28T15:29:15.137Z,100175.25
2022-08-28T15:31:43.392Z,100177.75
2022-08-28T15:34:13.839Z,100166.69
2022-08-28T15:36:44.037Z,100163.34
2022-08-28T15:39:29.162Z,100165.91
2022-08-28T15:41:56.954Z,100168.47
2022-08-28T15:44:25.530Z,100159.09
2022-08-28T15:46:53.442Z,100160.75
2022-08-28T15:49:23.708Z,100161.84
2022-08-28T15:51:52.324Z,100172.22
2022-08-28T15:54:20.301Z,100171.72
2022-08-28T15:56:49.788Z,100169.84
2022-08-28T15:59:20.498Z,100163.75
2022-08-28T16:01:48.217Z,100165.97
2022-08-28T16:04:16.155Z,100168.22
2022-08-28T16:06:43.957Z,100163.75
2022-08-28T16:09:12.119Z,100172.38
2022-08-28T16:11:41.185Z,100165.97
2022-08-28T16:14:08.992Z,100163.34
2022-08-28T16:16:36.746Z,100174.22
2022-08-28T16:19:04.754Z,100175.41
2022-08-28T16:21:32.597Z,100173.34
2022-08-28T16:24:00.743Z,100177.13
2022-08-28T16:26:28.457Z,100174.00
2022-08-28T16:28:56.113Z,100171.72
2022-08-28T16:31:23.955Z,100171.97
2022-08-28T16:33:51.700Z,100183.84
2022-08-28T16:36:19.897Z,100177.28
2022-08-28T16:39:00.460Z,100179.94
2022-08-28T16:41:31.994Z,100173.88
2022-08-28T16:43:59.847Z,100181.03
2022-08-28T16:46:28.340Z,100180.19
2022-08-28T16:48:56.245Z,100180.56
2022-08-28T16:51:27.006Z,100178.88
2022-08-28T16:53:54.788Z,100169.75
2022-08-28T16:56:23.786Z,100169.28
2022-08-28T16:58:53.287Z,100177.44
2022-08-28T17:01:22.378Z,100172.53
2022-08-28T17:03:52.115Z,100166.66
2022-08-28T17:06:19.879Z,100171.63
2022-08-28T17:08:48.140Z,100174.88
2022-08-28T17:11:15.991Z,100165.19
2022-08-28T17:13:43.620Z,100170.16
2022-08-28T17:16:11.358Z,100171.34
2022-08-28T17:18:39.418Z,100169.19
2022-08-28T17:21:32.448Z,100170.56
2022-08-28T17:24:00.179Z,100180.94
2022-08-28T17:26:28.229Z,100190.25
2022-08-28T17:28:55.879Z,100185.97
2022-08-28T17:31:23.734Z,100190.03
2022-08-28T17:33:51.740Z,100185.59
2022-08-28T17:36:32.798Z,100198.28
2022-08-28T17:39:02.235Z,100194.00
2022-08-28T17:41:29.989Z,100200.38
2022-08-28T17:43:57.737Z,100193.22
2022-08-28T17:46:26.000Z,100197.91
2022-08-28T17:48:55.619Z,100196.97
2022-08-28T17:51:42.702Z,100199.78
2022-08-28T17:54:12.050Z,100197.19
2022-08-28T17:56:40.404Z,100196.66
2022-08-28T17:59:08.067Z,100203.22
2022-08-28T18:01:36.274Z,100206.84
2022-08-28T18:04:05.267Z,100205.09
2022-08-28T18:06:33.499Z,100207.91
2022-08-28T18:09:02.683Z,100209.66
2022-08-28T18:11:30.432Z,100210.56
2022-08-28T18:13:59.864Z,100217.09
2022-08-28T18:16:31.438Z,100219.88
2022-08-28T18:18:59.928Z,100221.66
2022-08-28T18:21:27.647Z,100220.88
2022-08-28T18:23:55.367Z,100221.97
2022-08-28T18:26:23.032Z,100224.75
2022-08-28T18:28:51.144Z,100229.22
2022-08-28T18:31:18.920Z,100229.13
2022-08-28T18:33:46.724Z,100236.44
2022-08-28T18:36:14.498Z,100239.19
2022-08-28T18:38:42.166Z,100243.63
2022-08-28T18:41:10.657Z,100242.66
2022-08-28T18:43:38.350Z,100245.41
2022-08-28T18:46:06.069Z,100248.84
2022-08-28T18:48:33.813Z,100246.16
2022-08-28T18:51:01.924Z,100242.50
2022-08-28T18:53:30.048Z,100252.34
2022-08-28T18:55:57.833Z,100253.22
2022-08-28T18:58:29.644Z,100254.94
2022-08-28T19:00:58.405Z,100254.13
2022-08-28T19:03:26.156Z,100262.97
2022-08-28T19:05:55.132Z,100267.84
2022-08-28T19:08:22.916Z,100260.25
2022-08-28T19:10:50.994Z,100268.03
2022-08-28T19:13:18.759Z,100267.69
2022-08-28T19:15:46.524Z,100275.66
2022-08-28T19:18:14.425Z,100288.00
2022-08-28T19:20:43.593Z,100293.25
2022-08-28T19:23:15.442Z,100290.22
2022-08-28T19:25:44.969Z,100299.84
2022-08-28T19:28:12.822Z,100295.81
2022-08-28T19:30:41.027Z,100300.72
2022-08-28T19:33:08.865Z,100303.94
2022-08-28T19:35:36.569Z,100306.28
2022-08-28T19:38:04.311Z,100313.06
2022-08-28T19:40:33.790Z,100307.13
2022-08-28T19:43:01.576Z,100313.06
2022-08-28T19:45:29.866Z,100317.09
2022-08-28T19:47:57.611Z,100320.28
2022-08-28T19:50:25.671Z,100327.84
2022-08-28T19:52:53.438Z,100330.91
2022-08-28T19:55:21.073Z,100323.25
2022-08-28T19:57:49.551Z,100331.72
2022-08-28T20:00:19.033Z,100326.81
2022-08-28T20:02:46.960Z,100324.63
2022-08-28T20:05:14.857Z,100325.94
2022-08-28T20:07:42.557Z,100324.75
2022-08-28T20:10:10.751Z,100335.72
2022-08-28T20:12:38.741Z,100339.59
2022-08-28T20:15:13.421Z,100337.22
2022-08-28T20:17:45.389Z,100338.56
2022-08-28T20:20:17.983Z,100345.97
2022-08-28T20:22:45.828Z,100340.25
2022-08-28T20:25:13.488Z,100345.94
2022-08-28T20:27:42.986Z,100341.03
2022-08-28T20:30:11.331Z,100353.19
2022-08-28T20:32:40.714Z,100352.31
2022-08-28T20:35:09.079Z,100356.53
2022-08-28T20:37:45.088Z,100358.84
2022-08-28T20:40:13.771Z,100364.72
2022-08-28T20:42:41.532Z,100361.50
2022-08-28T20:45:09.320Z,100378.84
2022-08-28T20:47:37.385Z,100369.41
2022-08-28T20:50:05.026Z,100381.47
2022-08-28T20:52:32.730Z,100370.16
2022-08-28T20:55:00.535Z,100379.41
2022-08-28T20:57:28.575Z,100377.38
2022-08-28T20:59:56.443Z,100374.31
2022-08-28T21:02:24.099Z,100373.94
2022-08-28T21:04:52.087Z,100379.28
2022-08-28T21:07:20.215Z,100387.31
2022-08-28T21:10:05.424Z,100388.94
2022-08-28T21:12:35.182Z,100392.09
2022-08-28T21:15:04.462Z,100398.81
2022-08-28T21:17:32.137Z,100394.88
2022-08-28T21:20:00.413Z,100400.91
2022-08-28T21:22:28.154Z,100400.00
2022-08-28T21:24:57.300Z,100396.38
2022-08-28T21:27:24.946Z,100407.06
2022-08-28T21:29:52.629Z,100399.06
2022-08-28T21:32:20.429Z,100398.13
2022-08-28T21:34:48.120Z,100391.66
2022-08-28T21:37:15.769Z,100395.25
2022-08-28T21:39:43.949Z,100394.16
2022-08-28T21:42:11.757Z,100394.09
2022-08-28T21:44:39.471Z,100402.06
2022-08-28T21:47:08.906Z,100401.78
2022-08-28T21:49:37.745Z,100407.94
2022-08-28T21:52:06.126Z,100417.59
2022-08-28T21:54:33.707Z,100420.19
2022-08-28T21:57:01.600Z,100424.31
2022-08-28T21:59:35.949Z,100422.06
2022-08-28T22:02:05.529Z,100427.03
2022-08-28T22:04:33.179Z,100424.06
2022-08-28T22:07:00.931Z,100427.16
2022-08-28T22:09:29.230Z,100429.47
2022-08-28T22:11:57.320Z,100418.97
2022-08-28T22:14:26.018Z,100423.81
2022-08-28T22:16:53.764Z,100423.25
2022-08-28T22:19:21.451Z,100417.63
2022-08-28T22:22:21.354Z,100426.25
2022-08-28T22:24:49.070Z,100436.03
2022-08-28T22:27:17.074Z,100427.69
2022-08-28T22:29:45.116Z,100423.19
2022-08-28T22:32:12.934Z,100423.91
2022-08-28T22:34:40.572Z,100424.47
2022-08-28T22:37:08.235Z,100426.72
2022-08-28T22:39:36.651Z,100428.00
2022-08-28T22:42:04.323Z,100424.75
2022-08-28T22:44:32.073Z,100430.25
2022-08-28T22:46:59.690Z,100425.31
2022-08-28T22:49:27.848Z,100424.06
2022-08-28T22:51:55.472Z,100432.88
2022-08-28T22:54:23.149Z,100424.69
2022-08-28T22:56:50.820Z,100433.44
2022-08-28T22:59:19.318Z,100435.69
2022-08-28T23:01:47.006Z,100430.03
2022-08-28T23:04:14.835Z,100421.97
2022-08-28T23:06:42.529Z,100422.94
2022-08-28T23:09:11.656Z,100418.50
2022-08-28T23:11:39.464Z,100418.50
2022-08-28T23:14:07.140Z,100412.94
2022-08-28T23:16:35.316Z,100420.41
2022-08-28T23:19:08.704Z,100416.19
2022-08-28T23:21:39.219Z,100419.13
2022-08-28T23:24:11.369Z,100414.88
2022-08-28T23:26:39.460Z,100410.34
2022-08-28T23:29:07.082Z,100414.94
2022-08-28T23:31:34.774Z,100405.84
2022-08-28T23:34:02.687Z,100393.09
2022-08-28T23:36:32.648Z,100406.19
2022-08-28T23:39:03.728Z,100396.84
2022-08-28T23:41:31.413Z,100409.66
2022-08-28T23:43:59.231Z,100393.03
2022-08-28T23:46:27.024Z,100390.59
2022-08-28T23:48:55.168Z,100389.88
2022-08-28T23:51:23.004Z,100390.28
2022-08-28T23:53:52.986Z,100388.13
2022-08-28T23:56:20.714Z,100386.06
2022-08-28T23:58:51.145Z,100395.47
